sensor_id;sensor_type;location;lat;lon;timestamp;pressure;altitude;pressure_sealevel;temperature;humidity
36242;BME280;22283;42.748;12.732;2023-05-09T00:01:13;98151.06;;;13.66;100.00
36242;BME280;22283;42.748;12.732;2023-05-09T00:06:14;98147.53;;;13.66;100.00
36242;BME280;22283;42.748;12.732;2023-05-09T00:11:14;98159.28;;;13.63;100.00
36242;BME280;22283;42.748;12.732;2023-05-09T00:16:16;98161.09;;;13.63;100.00
36242;BME280;22283;42.748;12.732;2023-05-09T00:21:17;98143.00;;;13.57;100.00
36242;BME280;22283;42.748;12.732;2023-05-09T00:26:17;98154.16;;;13.71;100.00
36242;BME280;22283;42.748;12.732;2023-05-09T00:31:19;98144.75;;;13.67;100.00
36242;BME280;22283;42.748;12.732;2023-05-09T00:36:19;98151.50;;;13.71;100.00
36242;BME280;22283;42.748;12.732;2023-05-09T00:41:20;98140.69;;;13.63;100.00
36242;BME280;22283;42.748;12.732;2023-05-09T00:46:21;98138.88;;;13.73;100.00
36242;BME280;22283;42.748;12.732;2023-05-09T00:51:22;98138.63;;;13.76;100.00
36242;BME280;22283;42.748;12.732;2023-05-09T00:56:24;98130.06;;;13.73;100.00
36242;BME280;22283;42.748;12.732;2023-05-09T01:01:25;98134.03;;;13.78;100.00
36242;BME280;22283;42.748;12.732;2023-05-09T01:11:44;98121.59;;;13.79;100.00
36242;BME280;22283;42.748;12.732;2023-05-09T01:17:15;98118.59;;;13.72;100.00
36242;BME280;22283;42.748;12.732;2023-05-09T01:22:25;98117.75;;;13.72;100.00
36242;BME280;22283;42.748;12.732;2023-05-09T01:32:53;98116.31;;;13.58;100.00
36242;BME280;22283;42.748;12.732;2023-05-09T01:37:57;98119.22;;;13.55;100.00
36242;BME280;22283;42.748;12.732;2023-05-09T01:43:01;98118.88;;;13.48;100.00
36242;BME280;22283;42.748;12.732;2023-05-09T01:48:04;98121.69;;;13.47;100.00
36242;BME280;22283;42.748;12.732;2023-05-09T01:53:06;98112.81;;;13.37;100.00
36242;BME280;22283;42.748;12.732;2023-05-09T01:58:09;98121.09;;;13.43;100.00
36242;BME280;22283;42.748;12.732;2023-05-09T02:03:11;98112.41;;;13.41;100.00
36242;BME280;22283;42.748;12.732;2023-05-09T02:08:13;98108.47;;;13.36;100.00
36242;BME280;22283;42.748;12.732;2023-05-09T02:13:14;98107.75;;;13.34;100.00
36242;BME280;22283;42.748;12.732;2023-05-09T02:18:15;98117.34;;;13.25;100.00
36242;BME280;22283;42.748;12.732;2023-05-09T02:23:16;98121.56;;;13.27;100.00
36242;BME280;22283;42.748;12.732;2023-05-09T02:28:18;98114.97;;;13.11;100.00
36242;BME280;22283;42.748;12.732;2023-05-09T02:33:20;98107.44;;;12.95;100.00
36242;BME280;22283;42.748;12.732;2023-05-09T02:38:22;98105.53;;;12.86;100.00
36242;BME280;22283;42.748;12.732;2023-05-09T02:43:23;98120.38;;;12.88;100.00
36242;BME280;22283;42.748;12.732;2023-05-09T02:48:24;98118.84;;;12.74;100.00
36242;BME280;22283;42.748;12.732;2023-05-09T02:53:25;98115.25;;;12.75;100.00
36242;BME280;22283;42.748;12.732;2023-05-09T02:58:25;98110.53;;;12.79;100.00
36242;BME280;22283;42.748;12.732;2023-05-09T03:03:26;98112.94;;;12.71;100.00
36242;BME280;22283;42.748;12.732;2023-05-09T03:08:27;98115.16;;;12.66;100.00
36242;BME280;22283;42.748;12.732;2023-05-09T03:13:28;98100.19;;;12.65;100.00
36242;BME280;22283;42.748;12.732;2023-05-09T03:18:30;98090.97;;;12.48;100.00
36242;BME280;22283;42.748;12.732;2023-05-09T03:23:31;98098.19;;;12.46;100.00
36242;BME280;22283;42.748;12.732;2023-05-09T03:28:32;98094.84;;;12.33;100.00
36242;BME280;22283;42.748;12.732;2023-05-09T03:33:36;98101.25;;;12.30;100.00
36242;BME280;22283;42.748;12.732;2023-05-09T03:38:37;98107.16;;;12.22;100.00
36242;BME280;22283;42.748;12.732;2023-05-09T03:43:38;98106.56;;;12.19;100.00
36242;BME280;22283;42.748;12.732;2023-05-09T03:48:39;98123.91;;;12.23;100.00
36242;BME280;22283;42.748;12.732;2023-05-09T03:53:40;98113.31;;;12.23;100.00
36242;BME280;22283;42.748;12.732;2023-05-09T03:58:42;98122.84;;;12.14;100.00
36242;BME280;22283;42.748;12.732;2023-05-09T04:03:42;98127.44;;;12.12;100.00
36242;BME280;22283;42.748;12.732;2023-05-09T04:08:45;98142.75;;;12.20;100.00
36242;BME280;22283;42.748;12.732;2023-05-09T04:13:46;98131.50;;;12.39;100.00
36242;BME280;22283;42.748;12.732;2023-05-09T04:19:04;98127.59;;;12.54;100.00
36242;BME280;22283;42.748;12.732;2023-05-09T04:24:07;98128.72;;;12.84;100.00
36242;BME280;22283;42.748;12.732;2023-05-09T04:29:15;98142.97;;;13.15;100.00
36242;BME280;22283;42.748;12.732;2023-05-09T04:34:21;98143.53;;;14.02;100.00
36242;BME280;22283;42.748;12.732;2023-05-09T04:39:21;98134.13;;;14.98;100.00
36242;BME280;22283;42.748;12.732;2023-05-09T04:44:31;98141.31;;;15.83;99.04
36242;BME280;22283;42.748;12.732;2023-05-09T04:49:33;98130.97;;;16.45;92.54
36242;BME280;22283;42.748;12.732;2023-05-09T04:54:34;98138.63;;;17.03;86.21
36242;BME280;22283;42.748;12.732;2023-05-09T04:59:36;98142.06;;;17.57;82.67
36242;BME280;22283;42.748;12.732;2023-05-09T05:04:38;98154.63;;;18.35;75.66
36242;BME280;22283;42.748;12.732;2023-05-09T05:09:39;98157.13;;;18.71;73.81
36242;BME280;22283;42.748;12.732;2023-05-09T05:14:40;98161.50;;;18.80;73.47
36242;BME280;22283;42.748;12.732;2023-05-09T05:19:43;98155.22;;;19.46;66.39
36242;BME280;22283;42.748;12.732;2023-05-09T05:24:43;98144.81;;;19.51;65.70
36242;BME280;22283;42.748;12.732;2023-05-09T05:29:44;98150.66;;;20.04;63.54
36242;BME280;22283;42.748;12.732;2023-05-09T05:34:45;98144.31;;;20.44;61.38
36242;BME280;22283;42.748;12.732;2023-05-09T05:39:46;98160.97;;;20.39;63.10
36242;BME280;22283;42.748;12.732;2023-05-09T05:44:47;98164.97;;;20.91;61.36
36242;BME280;22283;42.748;12.732;2023-05-09T05:49:48;98171.09;;;21.31;62.17
36242;BME280;22283;42.748;12.732;2023-05-09T05:54:48;98159.97;;;21.11;63.63
36242;BME280;22283;42.748;12.732;2023-05-09T05:59:49;98158.50;;;21.00;62.07
36242;BME280;22283;42.748;12.732;2023-05-09T06:04:50;98154.41;;;21.58;57.79
36242;BME280;22283;42.748;12.732;2023-05-09T06:09:52;98152.25;;;21.92;56.32
36242;BME280;22283;42.748;12.732;2023-05-09T06:14:52;98151.53;;;21.60;56.44
36242;BME280;22283;42.748;12.732;2023-05-09T06:19:53;98142.25;;;21.63;54.85
36242;BME280;22283;42.748;12.732;2023-05-09T06:24:53;98133.88;;;21.57;55.86
36242;BME280;22283;42.748;12.732;2023-05-09T06:29:54;98116.59;;;21.90;54.68
36242;BME280;22283;42.748;12.732;2023-05-09T06:34:54;98123.66;;;22.05;55.01
36242;BME280;22283;42.748;12.732;2023-05-09T06:39:55;98119.16;;;21.68;57.08
36242;BME280;22283;42.748;12.732;2023-05-09T06:44:55;98118.81;;;21.48;58.25
36242;BME280;22283;42.748;12.732;2023-05-09T06:49:56;98121.75;;;21.16;60.94
36242;BME280;22283;42.748;12.732;2023-05-09T06:54:56;98116.31;;;21.24;62.13
36242;BME280;22283;42.748;12.732;2023-05-09T06:59:57;98118.78;;;21.71;59.91
36242;BME280;22283;42.748;12.732;2023-05-09T07:04:57;98111.28;;;21.21;61.79
36242;BME280;22283;42.748;12.732;2023-05-09T07:09:58;98101.22;;;21.60;58.39
36242;BME280;22283;42.748;12.732;2023-05-09T07:15:00;98114.09;;;22.03;55.78
36242;BME280;22283;42.748;12.732;2023-05-09T07:20:01;98112.13;;;21.97;54.23
36242;BME280;22283;42.748;12.732;2023-05-09T07:25:05;98119.25;;;21.75;56.77
36242;BME280;22283;42.748;12.732;2023-05-09T07:30:06;98104.59;;;22.07;57.20
36242;BME280;22283;42.748;12.732;2023-05-09T07:35:08;98108.53;;;21.90;55.75
36242;BME280;22283;42.748;12.732;2023-05-09T07:40:09;98104.94;;;21.59;59.46
36242;BME280;22283;42.748;12.732;2023-05-09T07:45:09;98102.03;;;21.61;61.13
36242;BME280;22283;42.748;12.732;2023-05-09T07:50:10;98084.63;;;21.34;59.45
36242;BME280;22283;42.748;12.732;2023-05-09T07:55:11;98097.66;;;21.45;61.50
36242;BME280;22283;42.748;12.732;2023-05-09T08:00:12;98099.56;;;21.59;60.48
36242;BME280;22283;42.748;12.732;2023-05-09T08:05:16;98094.72;;;21.55;62.00
36242;BME280;22283;42.748;12.732;2023-05-09T08:10:17;98097.06;;;21.58;63.74
36242;BME280;22283;42.748;12.732;2023-05-09T08:15:17;98089.09;;;22.24;59.20
36242;BME280;22283;42.748;12.732;2023-05-09T08:20:18;98075.16;;;22.05;60.41
36242;BME280;22283;42.748;12.732;2023-05-09T08:25:18;98076.63;;;21.93;60.62
36242;BME280;22283;42.748;12.732;2023-05-09T08:30:20;98081.72;;;21.58;61.28
36242;BME280;22283;42.748;12.732;2023-05-09T08:35:20;98092.66;;;21.42;59.34
36242;BME280;22283;42.748;12.732;2023-05-09T08:40:21;98098.56;;;21.15;60.13
36242;BME280;22283;42.748;12.732;2023-05-09T08:45:25;98092.63;;;20.96;63.00
36242;BME280;22283;42.748;12.732;2023-05-09T08:50:27;98100.41;;;20.91;62.93
36242;BME280;22283;42.748;12.732;2023-05-09T08:55:28;98085.22;;;20.98;58.55
36242;BME280;22283;42.748;12.732;2023-05-09T09:00:30;98097.66;;;20.99;58.64
36242;BME280;22283;42.748;12.732;2023-05-09T09:05:36;98096.09;;;21.05;54.98
36242;BME280;22283;42.748;12.732;2023-05-09T09:10:39;98100.19;;;21.47;55.10
36242;BME280;22283;42.748;12.732;2023-05-09T09:15:47;98089.28;;;21.40;54.49
36242;BME280;22283;42.748;12.732;2023-05-09T09:20:54;98088.78;;;21.59;52.83
36242;BME280;22283;42.748;12.732;2023-05-09T09:25:57;98068.91;;;22.05;52.92
36242;BME280;22283;42.748;12.732;2023-05-09T09:30:58;98075.81;;;22.07;50.28
36242;BME280;22283;42.748;12.732;2023-05-09T09:35:59;98075.09;;;22.14;51.61
36242;BME280;22283;42.748;12.732;2023-05-09T09:40:59;98069.19;;;22.54;53.79
36242;BME280;22283;42.748;12.732;2023-05-09T09:46:02;98060.72;;;22.94;51.86
36242;BME280;22283;42.748;12.732;2023-05-09T09:51:09;98055.94;;;22.96;54.03
36242;BME280;22283;42.748;12.732;2023-05-09T09:56:10;98046.44;;;23.21;51.73
36242;BME280;22283;42.748;12.732;2023-05-09T10:01:12;98045.72;;;23.34;50.28
36242;BME280;22283;42.748;12.732;2023-05-09T10:06:14;98029.56;;;23.41;49.12
36242;BME280;22283;42.748;12.732;2023-05-09T10:11:15;98036.69;;;23.48;49.73
36242;BME280;22283;42.748;12.732;2023-05-09T10:16:16;98025.41;;;23.66;49.70
36242;BME280;22283;42.748;12.732;2023-05-09T10:21:17;98013.88;;;23.58;47.71
36242;BME280;22283;42.748;12.732;2023-05-09T10:26:29;98008.69;;;23.28;47.88
36242;BME280;22283;42.748;12.732;2023-05-09T10:31:35;98008.59;;;23.71;49.39
36242;BME280;22283;42.748;12.732;2023-05-09T10:36:36;98004.88;;;23.72;46.12
36242;BME280;22283;42.748;12.732;2023-05-09T10:41:38;97994.53;;;23.82;46.81
36242;BME280;22283;42.748;12.732;2023-05-09T10:46:39;97999.06;;;23.75;44.76
36242;BME280;22283;42.748;12.732;2023-05-09T10:51:40;97984.22;;;23.99;44.95
36242;BME280;22283;42.748;12.732;2023-05-09T10:56:41;97975.56;;;24.17;45.56
36242;BME280;22283;42.748;12.732;2023-05-09T11:01:41;97972.75;;;24.38;43.75
36242;BME280;22283;42.748;12.732;2023-05-09T11:11:54;97959.94;;;24.67;43.31
36242;BME280;22283;42.748;12.732;2023-05-09T11:16:56;97952.22;;;24.77;42.41
36242;BME280;22283;42.748;12.732;2023-05-09T11:22:11;97941.19;;;25.05;41.57
36242;BME280;22283;42.748;12.732;2023-05-09T11:27:19;97933.44;;;25.48;41.60
36242;BME280;22283;42.748;12.732;2023-05-09T11:32:25;97921.22;;;25.13;43.59
36242;BME280;22283;42.748;12.732;2023-05-09T11:37:29;97916.22;;;24.90;42.14
36242;BME280;22283;42.748;12.732;2023-05-09T11:42:31;97919.53;;;24.98;43.74
36242;BME280;22283;42.748;12.732;2023-05-09T11:47:32;97912.69;;;25.09;44.06
36242;BME280;22283;42.748;12.732;2023-05-09T11:52:35;97907.06;;;25.24;42.92
36242;BME280;22283;42.748;12.732;2023-05-09T11:57:44;97906.81;;;25.39;39.92
36242;BME280;22283;42.748;12.732;2023-05-09T12:02:46;97912.19;;;25.45;41.01
36242;BME280;22283;42.748;12.732;2023-05-09T12:07:47;97909.25;;;25.54;41.28
36242;BME280;22283;42.748;12.732;2023-05-09T12:12:50;97892.47;;;25.32;42.30
36242;BME280;22283;42.748;12.732;2023-05-09T12:18:04;97891.16;;;25.47;40.21
36242;BME280;22283;42.748;12.732;2023-05-09T12:23:05;97891.22;;;25.21;41.22
36242;BME280;22283;42.748;12.732;2023-05-09T12:28:06;97888.50;;;25.27;40.19
36242;BME280;22283;42.748;12.732;2023-05-09T12:33:07;97887.88;;;25.32;41.40
36242;BME280;22283;42.748;12.732;2023-05-09T12:38:13;97886.56;;;25.55;39.31
36242;BME280;22283;42.748;12.732;2023-05-09T12:43:16;97879.94;;;25.44;40.25
36242;BME280;22283;42.748;12.732;2023-05-09T12:48:16;97873.75;;;25.03;39.93
36242;BME280;22283;42.748;12.732;2023-05-09T12:53:27;97877.72;;;24.61;45.36
36242;BME280;22283;42.748;12.732;2023-05-09T12:58:31;97864.13;;;24.35;44.07
36242;BME280;22283;42.748;12.732;2023-05-09T13:03:32;97839.63;;;24.69;42.61
36242;BME280;22283;42.748;12.732;2023-05-09T13:08:39;97851.28;;;24.76;43.18
36242;BME280;22283;42.748;12.732;2023-05-09T13:13:40;97847.97;;;24.61;40.71
36242;BME280;22283;42.748;12.732;2023-05-09T13:18:41;97828.41;;;24.79;41.11
36242;BME280;22283;42.748;12.732;2023-05-09T13:23:42;97822.94;;;25.19;40.13
36242;BME280;22283;42.748;12.732;2023-05-09T13:28:44;97820.84;;;25.08;39.06
36242;BME280;22283;42.748;12.732;2023-05-09T13:33:45;97823.78;;;24.99;39.84
36242;BME280;22283;42.748;12.732;2023-05-09T13:38:46;97825.03;;;25.03;40.23
36242;BME280;22283;42.748;12.732;2023-05-09T13:51:27;97807.13;;;25.09;39.81
